• Join FlightAware (Why Join?)
  • Login
  • US Flag 
09:03AM EDT


 

Airport Tracker/Info


-or-


 

Live Flight TrackerFlight Track Log ✈ ASQ4663 ✈ 17-May-2013 ✈ KEWR - KBNA

Flight Track Log - Related Links

Times and Time Zones

All times are in EDT time to prevent confusion due to time zone crossing. See the ASQ4663 flight status page for this flight to view local times or setup timezone preferences in your user account.

Time Position Orientation Groundspeed Altitude Reporting Facility
EDT Latitude Longitude Course Direction KTS MPH feet Rate Location/Type
07:50PM 40.7167 -74.1500 270° West 183 211 1,900  Level New York TRACON
07:51PM 40.7500 -74.2000 311° West 217 250 3,800 2,100 Climbing New York TRACON
07:52PM 40.7667 -74.2667 288° West 229 264 6,200 2,520 Climbing New York TRACON
07:53PM 40.6833 -74.6991 270° West  Level FlightAware Approximate
07:53PM 40.7833 -74.3500 285° West 236 272 8,900  Level New York TRACON
07:54PM 40.6834 -74.8322 270° West  Level FlightAware Approximate
07:54PM 40.8000 -74.4500 282° West 261 300 10,300  Level New York TRACON
07:55PM 40.6833 -74.9653 270° West  Level FlightAware Approximate
07:56PM 40.6667 -75.0960 270° West  Level FlightAware Approximate
07:56PM 40.7547 -74.6967 256° West 326 375 12,500  Level New York Center
07:57PM 40.7344 -74.8050 256° West 340 391 13,600 1,140 Climbing New York Center
07:58PM 40.7114 -74.9297 256° West 346 398 14,800 1,140 Climbing New York Center
07:59PM 40.6881 -75.0514 256° West 355 409 15,900 1,200 Climbing New York Center
08:00PM 40.6378 -75.1767 242° Southwest 356 410 17,300 1,080 Climbing New York Center
08:01PM 40.5900 -75.2803 239° Southwest 356 410 18,100 960 Climbing New York Center
08:02PM 40.5331 -75.4078 240° Southwest 371 427 19,300 1,200 Climbing New York Center
08:03PM 40.4806 -75.5214 239° Southwest 371 427 20,500 1,140 Climbing New York Center
08:04PM 40.4278 -75.6378 239° Southwest 371 427 21,600 1,140 Climbing New York Center
08:05PM 40.3750 -75.7539 239° Southwest 371 427 22,800 1,140 Climbing New York Center
08:06PM 40.3222 -75.8700 239° Southwest 376 433 24,000 1,140 Climbing New York Center
08:07PM 40.2678 -75.9719 235° Southwest 376 433 25,100 1,140 Climbing New York Center
08:08PM 40.2169 -76.0850 240° Southwest 371 427 26,300 1,200 Climbing New York Center
08:09PM 40.1653 -76.2089 241° Southwest 371 427 27,500 1,200 Climbing New York Center
08:10PM 40.1203 -76.3247 243° Southwest 360 414 28,800 1,140 Climbing New York Center
08:11PM 40.0814 -76.4411 246° West 360 414 29,800 960 Climbing New York Center
08:13PM 40.0197 -76.6128 245° Southwest 341 392 31,300 960 Climbing Washington Center
08:14PM 39.9792 -76.7286 245° Southwest 346 398 32,300 960 Climbing Washington Center
08:15PM 39.9364 -76.8469 245° Southwest 353 406 33,300 960 Climbing Washington Center
08:16PM 39.8850 -76.9758 243° Southwest 364 419 34,300 960 Climbing Washington Center
08:17PM 39.8439 -77.0967 246° West 364 419 35,300 840 Climbing Washington Center
08:18PM 39.7986 -77.2144 243° Southwest 364 419 36,000 300 Climbing Washington Center
08:19PM 39.7572 -77.3350 246° West 364 419 36,000  Level Washington Center
08:20PM 39.7075 -77.4606 243° Southwest 377 434 36,000  Level Washington Center
08:21PM 39.6617 -77.5942 246° West 391 450 36,000  Level Washington Center
08:22PM 39.6114 -77.7250 244° Southwest 403 464 36,000  Level Washington Center
08:23PM 39.5653 -77.8528 245° Southwest 403 464 36,000  Level Washington Center
08:24PM 39.5169 -77.9831 244° Southwest 398 458 36,000  Level Washington Center
08:25PM 39.4664 -78.1158 244° Southwest 398 458 36,000  Level Washington Center
08:26PM 39.4178 -78.2431 244° Southwest 398 458 36,000  Level Washington Center
08:27PM 39.3711 -78.3703 245° Southwest 398 458 36,000  Level Washington Center
08:28PM 39.3244 -78.4944 244° Southwest 398 458 36,000  Level Washington Center
08:29PM 39.2733 -78.6267 243° Southwest 398 458 36,000  Level Washington Center
08:30PM 39.2219 -78.7583 243° Southwest 398 458 36,000  Level Washington Center
08:31PM 39.1728 -78.8847 243° Southwest 398 458 36,000  Level Washington Center
08:32PM 39.1253 -79.0111 244° Southwest 398 458 36,000  Level Washington Center
08:33PM 39.0758 -79.1344 243° Southwest 398 458 36,000  Level Washington Center
08:34PM 39.0264 -79.2603 243° Southwest 398 458 36,000  Level Washington Center
08:35PM 38.9808 -79.3808 244° Southwest 403 464 36,000  Level Washington Center
08:36PM 38.9308 -79.5117 244° Southwest 408 470 36,000  Level Washington Center
08:37PM 38.8764 -79.6475 243° Southwest 414 476 36,000  Level Washington Center
08:38PM 38.8214 -79.7911 244° Southwest 420 483 36,000  Level Washington Center
08:39PM 38.7689 -79.9186 242° Southwest 420 483 36,000  Level Washington Center
08:41PM 38.6508 -80.2200 243° Southwest 410 472 36,000  Level Indianapolis Center
08:42PM 38.6253 -80.3636 257° West 413 475 36,000  Level Indianapolis Center
08:44PM 38.5867 -80.5283 253° West 403 464 36,000  Level Indianapolis Center
08:45PM 38.5525 -80.6672 253° West 407 468 36,000  Level Indianapolis Center
08:46PM 38.5208 -80.8056 254° West 408 470 36,000  Level Indianapolis Center
08:47PM 38.4867 -80.9436 252° West 407 468 36,000  Level Indianapolis Center
08:48PM 38.4522 -81.0839 253° West 413 475 36,000  Level Indianapolis Center
08:49PM 38.4181 -81.2233 253° West 411 473 36,000  Level Indianapolis Center
08:50PM 38.3828 -81.3647 252° West 414 476 36,000  Level Indianapolis Center
08:51PM 38.3483 -81.5058 253° West 413 475 36,000  Level Indianapolis Center
08:52PM 38.3144 -81.6444 253° West 408 470 36,000  Level Indianapolis Center
08:53PM 38.2792 -81.7800 252° West 403 464 36,000  Level Indianapolis Center
08:54PM 38.2453 -81.9167 253° West 404 465 36,000  Level Indianapolis Center
08:55PM 38.2111 -82.0522 252° West 402 463 36,000  Level Indianapolis Center
08:56PM 38.1761 -82.1892 252° West 406 467 36,000  Level Indianapolis Center
08:57PM 38.1347 -82.3522 252° West 405 466 36,000  Level Indianapolis Center
08:58PM 38.1025 -82.4750 252° West 405 466 36,000  Level Indianapolis Center
08:59PM 38.0678 -82.6111 252° West 406 467 36,000  Level Indianapolis Center
09:00PM 38.0256 -82.7753 252° West 419 482 36,000  Level Indianapolis Center
09:01PM 37.9894 -82.9150 252° West 421 484 36,000  Level Indianapolis Center
09:02PM 37.9522 -83.0533 251° West 417 480 36,000  Level Indianapolis Center
09:03PM 37.9158 -83.1889 251° West 411 473 36,000  Level Indianapolis Center
09:04PM 37.8794 -83.3244 251° West 409 471 36,000  Level Indianapolis Center
09:05PM 37.8422 -83.4603 251° West 408 470 36,000 -600 Level Indianapolis Center
09:06PM 37.7864 -83.5847 240° Southwest 413 475 34,800 -1,020 Descending Indianapolis Center
09:07PM 37.7197 -83.7019 234° Southwest 415 478 34,000 -420 Descending Indianapolis Center
09:08PM 37.6453 -83.8381 235° Southwest 409 471 34,000  Level Indianapolis Center
09:09PM 37.5778 -83.9578 235° Southwest 416 479 34,000  Level Indianapolis Center
09:10PM 37.5100 -84.0792 235° Southwest 422 486 34,000  Level Indianapolis Center
09:11PM 37.4444 -84.1967 235° Southwest 413 475 34,000 -60 Level Indianapolis Center
09:12PM 37.3778 -84.3131 234° Southwest 411 473 33,900 -480 Descending Indianapolis Center
09:13PM 37.3114 -84.4308 235° Southwest 414 476 33,100 -480 Descending Indianapolis Center
09:14PM 37.2419 -84.5528 234° Southwest 425 489 33,000 -60 Descending Indianapolis Center
09:15PM 37.1725 -84.6742 234° Southwest 427 491 33,000 -300 Level Indianapolis Center
09:16PM 37.0903 -84.8153 234° Southwest 431 496 32,400 -1,320 Descending Indianapolis Center
09:17PM 37.0275 -84.9261 235° Southwest 431 496 30,400 -2,160 Descending Indianapolis Center
09:18PM 36.9564 -85.0492 234° Southwest 437 503 28,100 -2,340 Descending Indianapolis Center
09:19PM 36.8833 -85.1742 234° Southwest 444 511 25,700 -2,460 Descending Indianapolis Center
09:20PM 36.7964 -85.3225 234° Southwest 442 509 23,100 -1,920 Descending Indianapolis Center
09:21PM 36.7300 -85.4422 235° Southwest 426 490 21,900 -1,200 Descending Indianapolis Center
09:22PM 36.7114 -85.4911 245° Southwest 437 503 21,500 -960 Descending Memphis Center
09:23PM 36.6492 -85.6086 237° Southwest 426 490 20,600 -780 Descending Memphis Center
09:24PM 36.5956 -85.7306 241° Southwest 421 484 20,000 -600 Descending Memphis Center
09:25PM 36.5411 -85.8397 238° Southwest 416 479 19,400 960 Descending Memphis Center
09:26PM 36.4869 -85.9564 240° Southwest 405 466 22,000 1,260 Climbing Memphis Center
09:27PM 36.4475 -86.0772 248° West 383 441 22,000  Level Memphis Center
09:28PM 36.4158 -86.1922 251° West 372 428 22,000  Level Memphis Center
09:29PM 36.3903 -86.2992 253° West 333 383 22,000  Level Memphis Center
09:30PM 36.3661 -86.3881 251° West 286 329 22,000  Level Memphis Center
09:31PM 36.3458 -86.4742 254° West 265 305 22,000  Level Memphis Center
09:32PM 36.3256 -86.5575 253° West 265 305 22,000  Level Memphis Center
09:33PM 36.2961 -86.6233 241° Southwest 251 289 22,000  Level Memphis Center
09:34PM 36.2425 -86.6411 195° South 194 223 22,000  Level Memphis Center